createdAt,value
2022-11-05T00:00:30.622Z,99.90
2022-11-05T00:03:15.966Z,99.90
2022-11-05T00:06:02.345Z,99.90
2022-11-05T00:08:48.940Z,99.90
2022-11-05T00:11:18.401Z,99.90
2022-11-05T00:14:03.836Z,99.90
2022-11-05T00:16:46.718Z,99.90
2022-11-05T00:19:14.929Z,99.90
2022-11-05T00:22:00.514Z,99.90
2022-11-05T00:24:47.550Z,99.90
2022-11-05T00:27:15.407Z,99.90
2022-11-05T00:29:43.286Z,99.90
2022-11-05T00:32:11.249Z,99.90
2022-11-05T00:34:39.099Z,99.90
2022-11-05T00:37:06.923Z,99.90
2022-11-05T00:39:36.246Z,99.90
2022-11-05T00:42:21.748Z,99.90
2022-11-05T00:45:04.915Z,99.90
2022-11-05T00:47:51.382Z,99.90
2022-11-05T00:50:21.043Z,99.90
2022-11-05T00:52:59.270Z,99.90
2022-11-05T00:55:33.261Z,99.90
2022-11-05T00:58:01.806Z,99.90
2022-11-05T01:00:31.579Z,99.90
2022-11-05T01:03:00.897Z,99.90
2022-11-05T01:05:29.664Z,99.90
2022-11-05T01:07:57.932Z,99.90
2022-11-05T01:10:26.349Z,99.90
2022-11-05T01:12:58.061Z,99.90
2022-11-05T01:15:25.921Z,99.90
2022-11-05T01:17:54.024Z,99.90
2022-11-05T01:20:22.128Z,99.90
2022-11-05T01:22:50.011Z,99.90
2022-11-05T01:25:20.830Z,99.90
2022-11-05T01:27:48.673Z,99.90
2022-11-05T01:30:18.205Z,99.90
2022-11-05T01:32:46.069Z,99.90
2022-11-05T01:35:16.661Z,99.90
2022-11-05T01:37:45.167Z,99.90
2022-11-05T01:40:14.940Z,99.90
2022-11-05T01:42:42.895Z,99.90
2022-11-05T01:45:14.912Z,99.90
2022-11-05T01:47:54.419Z,99.90
2022-11-05T01:50:34.423Z,99.90
2022-11-05T01:53:06.863Z,99.90
2022-11-05T01:55:39.247Z,99.90
2022-11-05T01:58:10.475Z,99.90
2022-11-05T02:00:39.854Z,99.90
2022-11-05T02:03:10.123Z,99.90
2022-11-05T02:05:40.135Z,99.90
2022-11-05T02:08:11.075Z,99.90
2022-11-05T02:10:39.045Z,99.90
2022-11-05T02:13:06.983Z,99.90
2022-11-05T02:15:45.936Z,99.90
2022-11-05T02:18:27.484Z,99.90
2022-11-05T02:21:07.980Z,99.90
2022-11-05T02:24:01.434Z,99.90
2022-11-05T02:27:00.225Z,99.90
2022-11-05T02:30:04.898Z,99.90
2022-11-05T02:32:44.527Z,99.90
2022-11-05T02:35:19.685Z,99.90
2022-11-05T02:37:52.835Z,99.90
2022-11-05T02:40:27.924Z,99.90
2022-11-05T02:43:02.386Z,99.90
2022-11-05T02:45:41.419Z,99.90
2022-11-05T02:48:15.166Z,99.90
2022-11-05T02:50:53.943Z,99.90
2022-11-05T02:53:30.072Z,99.90
2022-11-05T02:56:01.005Z,99.90
2022-11-05T02:58:30.500Z,99.90
2022-11-05T03:01:00.304Z,99.90
2022-11-05T03:03:35.081Z,99.90
2022-11-05T03:06:51.822Z,99.90
2022-11-05T03:09:54.769Z,99.90
2022-11-05T03:12:32.022Z,99.90
2022-11-05T03:15:09.864Z,99.90
2022-11-05T03:17:45.053Z,99.90
2022-11-05T03:20:20.380Z,99.90
2022-11-05T03:22:53.580Z,99.90
2022-11-05T03:25:23.839Z,99.90
2022-11-05T03:27:58.098Z,99.90
2022-11-05T03:30:26.868Z,99.90
2022-11-05T03:32:59.279Z,99.90
2022-11-05T03:35:31.652Z,99.90
2022-11-05T03:38:03.722Z,99.90
2022-11-05T03:40:36.287Z,99.90
2022-11-05T03:43:09.254Z,99.90
2022-11-05T03:45:42.995Z,99.90
2022-11-05T03:48:13.637Z,99.90
2022-11-05T03:50:47.381Z,99.90
2022-11-05T03:53:17.754Z,99.90
2022-11-05T03:55:59.343Z,99.90
2022-11-05T03:58:28.216Z,99.90
2022-11-05T04:00:56.211Z,99.90
2022-11-05T04:03:24.095Z,99.90
2022-11-05T04:06:10.261Z,99.90
2022-11-05T04:08:55.445Z,99.90
2022-11-05T04:11:40.934Z,99.90
2022-11-05T04:14:08.839Z,99.90
2022-11-05T04:16:54.409Z,99.90
2022-11-05T04:19:36.209Z,99.90
2022-11-05T04:22:22.758Z,99.90
2022-11-05T04:24:50.588Z,99.90
2022-11-05T04:27:18.752Z,99.90
2022-11-05T04:30:04.348Z,99.90
2022-11-05T04:32:32.266Z,99.90
2022-11-05T04:35:00.209Z,99.90
2022-11-05T04:37:29.421Z,99.90
2022-11-05T04:39:57.253Z,99.90
2022-11-05T04:42:25.085Z,99.90
2022-11-05T04:44:52.939Z,99.90
2022-11-05T04:47:20.917Z,99.90
2022-11-05T04:49:48.852Z,99.90
2022-11-05T04:52:17.919Z,99.90
2022-11-05T04:54:47.149Z,99.90
2022-11-05T04:57:15.085Z,99.90
2022-11-05T04:59:42.982Z,99.90
2022-11-05T05:02:10.937Z,99.90
2022-11-05T05:04:38.977Z,99.90
2022-11-05T05:07:06.856Z,99.90
2022-11-05T05:09:34.732Z,99.90
2022-11-05T05:12:04.084Z,99.90
2022-11-05T05:14:32.026Z,99.90
2022-11-05T05:16:59.984Z,99.90
2022-11-05T05:19:28.080Z,99.90
2022-11-05T05:21:54.911Z,99.90
2022-11-05T05:24:24.923Z,99.90
2022-11-05T05:26:53.102Z,99.90
2022-11-05T05:29:24.678Z,99.90
2022-11-05T05:31:52.530Z,99.90
2022-11-05T05:34:20.408Z,99.90
2022-11-05T05:36:48.245Z,99.90
2022-11-05T05:39:16.235Z,99.90
2022-11-05T05:41:44.105Z,99.90
2022-11-05T05:44:12.027Z,99.90
2022-11-05T05:46:41.253Z,99.90
2022-11-05T05:49:12.572Z,99.90
2022-11-05T05:51:40.959Z,99.90
2022-11-05T05:54:08.942Z,99.90
2022-11-05T05:56:36.811Z,99.90
2022-11-05T05:59:07.133Z,99.90
2022-11-05T06:01:35.132Z,99.90
2022-11-05T06:04:04.510Z,99.90
2022-11-05T06:06:32.455Z,99.90
2022-11-05T06:09:00.392Z,99.90
2022-11-05T06:11:28.497Z,99.90
2022-11-05T06:13:56.588Z,99.90
2022-11-05T06:16:24.489Z,99.90
2022-11-05T06:18:52.799Z,99.90
2022-11-05T06:21:22.138Z,99.90
2022-11-05T06:23:50.109Z,99.90
2022-11-05T06:26:20.037Z,99.90
2022-11-05T06:28:48.305Z,99.90
2022-11-05T06:31:16.617Z,99.90
2022-11-05T06:33:44.540Z,99.90
2022-11-05T06:36:15.977Z,99.90
2022-11-05T06:38:45.325Z,99.90
2022-11-05T06:41:13.198Z,99.90
2022-11-05T06:43:41.091Z,99.90
2022-11-05T06:46:09.404Z,99.90
2022-11-05T06:48:37.303Z,99.90
2022-11-05T06:51:06.841Z,99.90
2022-11-05T06:53:35.384Z,99.90
2022-11-05T06:56:05.509Z,99.90
2022-11-05T06:58:34.301Z,99.90
2022-11-05T07:01:03.194Z,99.90
2022-11-05T07:03:31.241Z,99.90
2022-11-05T07:06:00.858Z,99.90
2022-11-05T07:08:31.159Z,99.90
2022-11-05T07:10:59.303Z,99.90
2022-11-05T07:13:28.542Z,99.90
2022-11-05T07:15:56.779Z,99.90
2022-11-05T07:18:25.007Z,99.90
2022-11-05T07:20:52.913Z,99.90
2022-11-05T07:23:20.792Z,99.90
2022-11-05T07:25:48.665Z,99.90
2022-11-05T07:28:16.524Z,99.90
2022-11-05T07:30:45.690Z,99.90
2022-11-05T07:33:14.078Z,99.90
2022-11-05T07:35:42.194Z,99.90
2022-11-05T07:38:10.286Z,99.90
2022-11-05T07:40:38.388Z,99.90
2022-11-05T07:43:06.280Z,99.90
2022-11-05T07:45:34.340Z,99.90
2022-11-05T07:48:04.975Z,99.90
2022-11-05T07:50:35.302Z,99.90
2022-11-05T07:53:04.839Z,99.90
2022-11-05T07:55:33.376Z,99.90
2022-11-05T07:58:01.238Z,99.90
2022-11-05T08:00:29.873Z,99.90
2022-11-05T08:03:06.747Z,99.90
2022-11-05T08:05:39.341Z,99.90
2022-11-05T08:08:08.657Z,99.90
2022-11-05T08:10:37.650Z,99.90
2022-11-05T08:13:09.398Z,99.90
2022-11-05T08:15:38.062Z,99.90
2022-11-05T08:18:07.796Z,99.90
2022-11-05T08:20:38.500Z,99.90
2022-11-05T08:23:06.628Z,99.90
2022-11-05T08:25:34.918Z,99.90
2022-11-05T08:28:05.266Z,99.90
2022-11-05T08:30:33.940Z,99.90
2022-11-05T08:33:04.203Z,99.90
2022-11-05T08:35:32.400Z,99.90
2022-11-05T08:38:04.173Z,99.90
2022-11-05T08:40:33.808Z,99.90
2022-11-05T08:43:03.563Z,99.90
2022-11-05T08:45:31.845Z,99.90
2022-11-05T08:48:01.018Z,99.90
2022-11-05T08:50:29.506Z,99.90
2022-11-05T08:52:57.659Z,99.90
2022-11-05T08:55:27.391Z,99.90
2022-11-05T08:57:58.658Z,99.90
2022-11-05T09:00:27.543Z,99.90
2022-11-05T09:02:55.402Z,99.90
2022-11-05T09:05:23.508Z,99.90
2022-11-05T09:07:53.144Z,99.90
2022-11-05T09:10:25.896Z,99.90
2022-11-05T09:12:53.777Z,99.90
2022-11-05T09:15:23.136Z,99.90
2022-11-05T09:17:51.196Z,99.90
2022-11-05T09:20:19.468Z,99.90
2022-11-05T09:22:47.381Z,99.90
2022-11-05T09:25:15.870Z,99.30
2022-11-05T09:27:45.419Z,96.90
2022-11-05T09:30:14.660Z,93.90
2022-11-05T09:32:42.866Z,90.90
2022-11-05T09:35:11.433Z,85.80
2022-11-05T09:37:39.937Z,79.20
2022-11-05T09:40:08.526Z,73.50
2022-11-05T09:42:40.830Z,68.60
2022-11-05T09:45:15.900Z,64.40
2022-11-05T09:47:47.040Z,61.60
2022-11-05T09:50:18.461Z,57.60
2022-11-05T09:52:46.456Z,55.90
2022-11-05T09:55:22.848Z,53.80
2022-11-05T09:57:55.713Z,51.80
2022-11-05T10:00:25.033Z,50.50
2022-11-05T10:02:56.381Z,49.00
2022-11-05T10:05:26.221Z,48.00
2022-11-05T10:07:58.445Z,46.80
2022-11-05T10:10:39.353Z,45.50
2022-11-05T10:13:16.681Z,44.10
2022-11-05T10:15:56.388Z,44.10
2022-11-05T10:18:29.673Z,44.00
2022-11-05T10:20:58.010Z,43.40
2022-11-05T10:23:27.498Z,42.20
2022-11-05T10:25:58.166Z,41.70
2022-11-05T10:28:30.705Z,40.80
2022-11-05T10:31:02.452Z,40.10
2022-11-05T10:33:34.520Z,40.00
2022-11-05T10:36:07.164Z,40.60
2022-11-05T10:38:35.215Z,40.60
2022-11-05T10:41:29.153Z,40.30
2022-11-05T10:44:03.877Z,41.10
2022-11-05T10:46:41.369Z,40.70
2022-11-05T10:49:26.017Z,41.70
2022-11-05T10:51:57.357Z,42.10
2022-11-05T10:54:30.715Z,42.80
2022-11-05T10:56:58.635Z,42.40
2022-11-05T10:59:28.438Z,42.60
2022-11-05T11:02:05.329Z,42.90
2022-11-05T11:04:37.687Z,43.00
2022-11-05T11:07:06.407Z,42.30
2022-11-05T11:09:37.184Z,42.10
2022-11-05T11:12:08.349Z,42.20
2022-11-05T11:14:36.213Z,42.30
2022-11-05T11:17:26.802Z,42.20
2022-11-05T11:20:20.375Z,41.80
2022-11-05T11:23:00.894Z,41.30
2022-11-05T11:25:31.210Z,40.10
2022-11-05T11:28:04.099Z,39.10
2022-11-05T11:30:33.718Z,38.00
2022-11-05T11:33:07.663Z,37.80
2022-11-05T11:35:39.359Z,38.50
2022-11-05T11:38:12.740Z,39.20
2022-11-05T11:40:40.699Z,40.40
2022-11-05T11:43:28.095Z,41.70
2022-11-05T11:46:03.805Z,43.40
2022-11-05T11:48:37.079Z,44.10
2022-11-05T11:51:18.428Z,45.20
2022-11-05T11:53:49.291Z,46.00
2022-11-05T11:56:20.022Z,46.50
2022-11-05T11:58:49.906Z,47.20
2022-11-05T12:01:47.569Z,47.50
2022-11-05T12:04:46.985Z,48.20
2022-11-05T12:07:31.618Z,49.00
2022-11-05T12:10:20.535Z,49.80
2022-11-05T12:12:57.942Z,50.80
2022-11-05T12:15:42.640Z,51.80
2022-11-05T12:18:15.615Z,52.50
2022-11-05T12:20:58.836Z,52.90
2022-11-05T12:24:00.974Z,53.30
2022-11-05T12:26:39.882Z,54.30
2022-11-05T12:29:36.081Z,54.30
2022-11-05T12:32:43.290Z,54.70
2022-11-05T12:35:22.812Z,55.40
2022-11-05T12:38:00.679Z,56.00
2022-11-05T12:40:43.670Z,56.60
2022-11-05T12:43:19.337Z,57.10
2022-11-05T12:45:55.425Z,57.60
2022-11-05T12:49:10.007Z,57.90
2022-11-05T12:51:52.251Z,58.50
2022-11-05T12:54:31.308Z,59.30
2022-11-05T12:57:03.292Z,60.10
2022-11-05T12:59:37.423Z,61.40
2022-11-05T13:02:14.480Z,62.70
2022-11-05T13:04:48.097Z,63.80
2022-11-05T13:07:21.892Z,64.90
2022-11-05T13:09:56.993Z,66.70
2022-11-05T13:12:28.496Z,66.90
2022-11-05T13:14:59.796Z,68.20
2022-11-05T13:17:33.972Z,69.40
2022-11-05T13:20:11.713Z,70.70
2022-11-05T13:22:47.646Z,71.90
2022-11-05T13:25:21.134Z,73.20
2022-11-05T13:27:59.288Z,74.50
2022-11-05T13:30:32.601Z,75.20
2022-11-05T13:33:04.883Z,76.10
2022-11-05T13:35:38.137Z,76.70
2022-11-05T13:38:27.797Z,77.30
2022-11-05T13:41:09.980Z,77.80
2022-11-05T13:43:55.800Z,77.90
2022-11-05T13:46:45.680Z,78.30
2022-11-05T13:49:39.420Z,78.60
2022-11-05T13:52:29.395Z,79.30
2022-11-05T13:55:17.280Z,79.70
2022-11-05T13:58:12.818Z,80.20
2022-11-05T14:00:47.415Z,80.70
2022-11-05T14:03:19.932Z,81.50
2022-11-05T14:05:55.480Z,82.30
2022-11-05T14:08:28.476Z,83.20
2022-11-05T14:11:03.935Z,84.30
2022-11-05T14:13:40.387Z,85.30
2022-11-05T14:16:10.032Z,86.20
2022-11-05T14:18:41.492Z,87.10
2022-11-05T14:21:45.396Z,88.00
2022-11-05T14:24:44.116Z,88.90
2022-11-05T14:27:46.018Z,90.00
2022-11-05T14:30:44.759Z,90.50
2022-11-05T14:33:33.132Z,90.90
2022-11-05T14:36:30.359Z,91.20
2022-11-05T14:39:12.722Z,91.70
2022-11-05T14:41:57.340Z,92.10
2022-11-05T14:44:26.063Z,92.60
2022-11-05T14:46:58.246Z,93.00
2022-11-05T14:49:28.773Z,93.30
2022-11-05T14:51:59.156Z,93.60
2022-11-05T14:54:30.428Z,93.90
2022-11-05T14:57:00.305Z,94.20
2022-11-05T15:00:04.759Z,94.50
2022-11-05T15:02:37.583Z,94.80
2022-11-05T15:05:37.078Z,95.10
2022-11-05T15:08:29.878Z,95.40
2022-11-05T15:11:08.186Z,95.70
2022-11-05T15:13:43.811Z,96.00
2022-11-05T15:16:17.256Z,96.20
2022-11-05T15:18:48.039Z,96.50
2022-11-05T15:21:19.074Z,96.70
2022-11-05T15:23:49.452Z,97.00
2022-11-05T15:26:24.851Z,97.30
2022-11-05T15:28:53.873Z,97.50
2022-11-05T15:31:27.520Z,97.80
2022-11-05T15:36:51.379Z,98.10
2022-11-05T15:39:30.788Z,98.70
2022-11-05T15:41:59.222Z,98.90
2022-11-05T15:44:29.808Z,99.20
2022-11-05T15:47:09.057Z,99.50
2022-11-05T15:49:37.483Z,99.80
2022-11-05T15:52:09.091Z,99.90
2022-11-05T15:54:39.104Z,99.90
2022-11-05T15:57:15.990Z,99.90
2022-11-05T15:59:48.044Z,99.90
2022-11-05T16:02:34.595Z,99.90
2022-11-05T16:05:06.723Z,99.90
2022-11-05T16:07:36.169Z,99.90
2022-11-05T16:10:10.054Z,99.90
2022-11-05T16:12:40.537Z,99.90
2022-11-05T16:15:21.121Z,99.90
2022-11-05T16:17:53.521Z,99.90
2022-11-05T16:20:28.789Z,99.90
2022-11-05T16:22:59.909Z,99.90
2022-11-05T16:25:31.712Z,99.90
2022-11-05T16:28:00.833Z,99.90
2022-11-05T16:30:29.320Z,99.90
2022-11-05T16:33:05.659Z,99.90
2022-11-05T16:35:33.666Z,99.90
2022-11-05T16:38:03.784Z,99.90
2022-11-05T16:40:31.688Z,99.90
2022-11-05T16:43:15.824Z,99.90
2022-11-05T16:45:43.747Z,99.90
2022-11-05T16:48:13.453Z,99.90
2022-11-05T16:50:42.309Z,99.90
2022-11-05T16:53:12.082Z,99.90
2022-11-05T16:55:42.374Z,99.90
2022-11-05T16:58:19.276Z,99.90
2022-11-05T17:00:47.417Z,99.90
2022-11-05T17:03:15.404Z,99.90
2022-11-05T17:05:43.481Z,99.90
2022-11-05T17:08:12.999Z,99.90
2022-11-05T17:10:41.162Z,99.90
2022-11-05T17:13:10.094Z,99.90
2022-11-05T17:15:37.951Z,99.90
2022-11-05T17:18:06.566Z,99.90
2022-11-05T17:20:40.764Z,99.90
2022-11-05T17:23:10.513Z,99.90
2022-11-05T17:25:40.716Z,99.90
2022-11-05T17:28:09.671Z,99.90
2022-11-05T17:30:40.378Z,99.90
2022-11-05T17:33:10.139Z,99.90
2022-11-05T17:35:39.758Z,99.90
2022-11-05T17:38:07.903Z,99.90
2022-11-05T17:40:36.654Z,99.90
2022-11-05T17:43:05.984Z,99.90
2022-11-05T17:45:33.901Z,99.90
2022-11-05T17:48:03.306Z,99.90
2022-11-05T17:50:31.281Z,99.90
2022-11-05T17:52:59.138Z,99.90
2022-11-05T17:55:27.052Z,99.90
2022-11-05T17:57:54.907Z,99.90
2022-11-05T18:00:25.479Z,99.90
2022-11-05T18:02:54.289Z,99.90
2022-11-05T18:05:23.596Z,99.90
2022-11-05T18:07:52.314Z,99.90
2022-11-05T18:10:20.341Z,99.90
2022-11-05T18:12:49.029Z,99.90
2022-11-05T18:15:18.022Z,99.90
2022-11-05T18:17:47.402Z,99.90
2022-11-05T18:20:19.641Z,99.90
2022-11-05T18:22:50.251Z,99.90
2022-11-05T18:25:18.729Z,99.90
2022-11-05T18:27:46.592Z,99.90
2022-11-05T18:30:17.975Z,99.90
2022-11-05T18:32:47.990Z,99.90
2022-11-05T18:35:15.916Z,99.90
2022-11-05T18:37:43.842Z,99.90
2022-11-05T18:40:13.241Z,99.90
2022-11-05T18:42:43.408Z,99.90
2022-11-05T18:45:12.500Z,99.90
2022-11-05T18:47:40.618Z,99.90
2022-11-05T18:50:11.182Z,99.90
2022-11-05T18:52:39.050Z,99.90
2022-11-05T18:55:08.203Z,99.90
2022-11-05T18:57:36.152Z,99.90
2022-11-05T19:00:05.569Z,99.90
2022-11-05T19:02:33.571Z,99.90
2022-11-05T19:07:50.905Z,99.90
2022-11-05T19:10:18.893Z,99.90
2022-11-05T19:12:46.856Z,99.90
2022-11-05T19:15:14.828Z,99.90
2022-11-05T19:17:42.941Z,99.90
2022-11-05T19:20:11.644Z,99.90
2022-11-05T19:22:39.557Z,99.90
2022-11-05T19:25:09.368Z,99.90
2022-11-05T19:27:38.588Z,99.90
2022-11-05T19:30:08.414Z,99.90
2022-11-05T19:32:36.295Z,99.90
2022-11-05T19:35:04.259Z,99.90
2022-11-05T19:37:32.198Z,99.90
2022-11-05T19:40:00.178Z,99.90
2022-11-05T19:42:29.504Z,99.90
2022-11-05T19:45:06.894Z,99.90
2022-11-05T19:47:44.860Z,99.90
2022-11-05T19:50:12.882Z,99.90
2022-11-05T19:52:41.371Z,99.90
2022-11-05T19:55:12.305Z,99.90
2022-11-05T19:57:41.785Z,99.90
2022-11-05T20:00:10.832Z,99.90
2022-11-05T20:02:38.807Z,99.90
2022-11-05T20:05:07.149Z,99.90
2022-11-05T20:07:35.000Z,99.90
2022-11-05T20:10:02.865Z,99.90
2022-11-05T20:12:30.723Z,99.90
2022-11-05T20:14:59.927Z,99.90
2022-11-05T20:17:28.014Z,99.90
2022-11-05T20:19:55.856Z,99.90
2022-11-05T20:22:24.161Z,99.90
2022-11-05T20:24:52.047Z,99.90
2022-11-05T20:27:19.916Z,99.90
2022-11-05T20:29:47.772Z,99.90
2022-11-05T20:32:17.027Z,99.90
2022-11-05T20:34:45.398Z,99.90
2022-11-05T20:37:13.533Z,99.90
2022-11-05T20:39:41.471Z,99.90
2022-11-05T20:42:09.458Z,99.90
2022-11-05T20:44:37.325Z,99.90
2022-11-05T20:47:06.253Z,99.90
2022-11-05T20:49:35.467Z,99.90
2022-11-05T20:52:03.421Z,99.90
2022-11-05T20:54:31.430Z,99.90
2022-11-05T20:56:59.334Z,99.90
2022-11-05T20:59:27.373Z,99.90
2022-11-05T21:01:55.351Z,99.90
2022-11-05T21:04:23.253Z,99.90
2022-11-05T21:06:53.297Z,99.90
2022-11-05T21:09:21.485Z,99.90
2022-11-05T21:12:07.210Z,99.90
2022-11-05T21:14:35.098Z,99.90
2022-11-05T21:17:03.243Z,99.90
2022-11-05T21:19:32.046Z,99.90
2022-11-05T21:22:01.438Z,99.90
2022-11-05T21:24:29.355Z,99.90
2022-11-05T21:26:57.214Z,99.90
2022-11-05T21:29:25.161Z,99.90
2022-11-05T21:31:53.371Z,99.90
2022-11-05T21:34:21.257Z,99.90
2022-11-05T21:36:50.323Z,99.90
2022-11-05T21:39:19.609Z,99.90
2022-11-05T21:41:47.462Z,99.90
2022-11-05T21:44:15.396Z,99.90
2022-11-05T21:46:43.262Z,99.90
2022-11-05T21:49:11.114Z,99.90
2022-11-05T21:51:56.490Z,99.90
2022-11-05T21:54:43.363Z,99.90
2022-11-05T21:57:32.886Z,99.90
2022-11-05T22:00:01.921Z,99.90
2022-11-05T22:02:30.537Z,99.90
2022-11-05T22:05:00.048Z,99.90
2022-11-05T22:07:30.138Z,99.90
2022-11-05T22:09:59.773Z,99.90
2022-11-05T22:12:28.130Z,99.90
2022-11-05T22:14:56.150Z,99.90
2022-11-05T22:17:24.562Z,99.90
2022-11-05T22:19:52.404Z,99.90
2022-11-05T22:22:20.307Z,99.90
2022-11-05T22:24:48.518Z,99.90
2022-11-05T22:27:20.530Z,99.90
2022-11-05T22:29:48.462Z,99.90
2022-11-05T22:32:16.839Z,99.90
2022-11-05T22:34:44.833Z,99.90
2022-11-05T22:37:13.847Z,99.90
2022-11-05T22:39:41.709Z,99.90
2022-11-05T22:42:09.947Z,99.90
2022-11-05T22:44:39.302Z,99.90
2022-11-05T22:47:07.589Z,99.90
2022-11-05T22:49:35.589Z,99.90
2022-11-05T22:52:03.518Z,99.90
2022-11-05T22:54:36.371Z,99.90
2022-11-05T22:57:06.954Z,99.90
2022-11-05T22:59:34.805Z,99.90
2022-11-05T23:02:09.167Z,99.90
2022-11-05T23:04:38.271Z,99.90
2022-11-05T23:07:27.685Z,99.90
2022-11-05T23:10:14.237Z,99.90
2022-11-05T23:12:44.302Z,99.90
2022-11-05T23:15:33.253Z,99.90
2022-11-05T23:18:20.104Z,99.90
2022-11-05T23:21:05.556Z,99.90
2022-11-05T23:23:51.133Z,99.90
2022-11-05T23:26:36.467Z,99.90
2022-11-05T23:29:04.421Z,99.90
2022-11-05T23:31:49.945Z,99.90
2022-11-05T23:34:21.184Z,99.90
2022-11-05T23:37:06.749Z,99.90
2022-11-05T23:39:39.674Z,99.90
2022-11-05T23:42:27.780Z,99.90
2022-11-05T23:45:14.806Z,99.90
2022-11-05T23:48:01.004Z,99.90
2022-11-05T23:50:34.333Z,99.90
2022-11-05T23:53:06.452Z,99.90
2022-11-05T23:55:34.439Z,99.90
2022-11-05T23:58:02.580Z,99.90
